sensor_id;sensor_type;location;lat;lon;timestamp;P1;durP1;ratioP1;P2;durP2;ratioP2
55312;SDS011;46892;45.668;11.756;2023-04-24T00:01:27;20.70;;;16.90;;
55312;SDS011;46892;45.668;11.756;2023-04-24T00:03:54;19.97;;;16.47;;
55312;SDS011;46892;45.668;11.756;2023-04-24T00:06:24;23.75;;;18.38;;
55312;SDS011;46892;45.668;11.756;2023-04-24T00:08:57;23.00;;;17.20;;
55312;SDS011;46892;45.668;11.756;2023-04-24T00:11:26;20.20;;;16.30;;
55312;SDS011;46892;45.668;11.756;2023-04-24T00:13:52;24.57;;;18.30;;
55312;SDS011;46892;45.668;11.756;2023-04-24T00:16:18;24.13;;;16.53;;
55312;SDS011;46892;45.668;11.756;2023-04-24T00:18:44;30.03;;;16.40;;
55312;SDS011;46892;45.668;11.756;2023-04-24T00:21:10;24.53;;;17.37;;
55312;SDS011;46892;45.668;11.756;2023-04-24T00:23:36;19.07;;;16.10;;
55312;SDS011;46892;45.668;11.756;2023-04-24T00:26:02;19.80;;;15.43;;
55312;SDS011;46892;45.668;11.756;2023-04-24T00:28:27;23.00;;;16.50;;
55312;SDS011;46892;45.668;11.756;2023-04-24T00:30:53;20.00;;;16.17;;
55312;SDS011;46892;45.668;11.756;2023-04-24T00:33:19;21.43;;;15.67;;
55312;SDS011;46892;45.668;11.756;2023-04-24T00:35:45;20.60;;;15.67;;
55312;SDS011;46892;45.668;11.756;2023-04-24T00:38:11;20.47;;;16.13;;
55312;SDS011;46892;45.668;11.756;2023-04-24T00:40:36;20.60;;;16.57;;
55312;SDS011;46892;45.668;11.756;2023-04-24T00:43:02;22.13;;;16.63;;
55312;SDS011;46892;45.668;11.756;2023-04-24T00:45:28;20.17;;;15.30;;
55312;SDS011;46892;45.668;11.756;2023-04-24T00:47:56;19.07;;;14.73;;
55312;SDS011;46892;45.668;11.756;2023-04-24T00:50:22;19.43;;;15.47;;
55312;SDS011;46892;45.668;11.756;2023-04-24T00:52:49;20.47;;;14.43;;
55312;SDS011;46892;45.668;11.756;2023-04-24T00:55:16;17.63;;;14.03;;
55312;SDS011;46892;45.668;11.756;2023-04-24T00:57:42;17.80;;;14.57;;
55312;SDS011;46892;45.668;11.756;2023-04-24T01:00:09;20.73;;;15.87;;
55312;SDS011;46892;45.668;11.756;2023-04-24T01:02:39;23.63;;;15.73;;
55312;SDS011;46892;45.668;11.756;2023-04-24T01:05:08;20.40;;;15.03;;
55312;SDS011;46892;45.668;11.756;2023-04-24T01:07:34;19.43;;;13.70;;
55312;SDS011;46892;45.668;11.756;2023-04-24T01:10:01;17.23;;;14.03;;
55312;SDS011;46892;45.668;11.756;2023-04-24T01:12:27;19.47;;;14.03;;
55312;SDS011;46892;45.668;11.756;2023-04-24T01:14:53;17.07;;;12.77;;
55312;SDS011;46892;45.668;11.756;2023-04-24T01:17:20;17.50;;;13.43;;
55312;SDS011;46892;45.668;11.756;2023-04-24T01:19:46;15.43;;;13.03;;
55312;SDS011;46892;45.668;11.756;2023-04-24T01:22:14;16.83;;;12.63;;
55312;SDS011;46892;45.668;11.756;2023-04-24T01:24:41;17.52;;;13.00;;
55312;SDS011;46892;45.668;11.756;2023-04-24T01:27:08;16.50;;;11.30;;
55312;SDS011;46892;45.668;11.756;2023-04-24T01:29:35;13.73;;;10.93;;
55312;SDS011;46892;45.668;11.756;2023-04-24T01:32:01;12.97;;;10.00;;
55312;SDS011;46892;45.668;11.756;2023-04-24T01:34:28;14.80;;;10.70;;
55312;SDS011;46892;45.668;11.756;2023-04-24T01:36:54;15.50;;;10.80;;
55312;SDS011;46892;45.668;11.756;2023-04-24T01:39:21;14.77;;;9.77;;
55312;SDS011;46892;45.668;11.756;2023-04-24T01:41:48;12.83;;;10.43;;
55312;SDS011;46892;45.668;11.756;2023-04-24T01:44:15;12.27;;;9.73;;
55312;SDS011;46892;45.668;11.756;2023-04-24T01:46:42;11.50;;;9.20;;
55312;SDS011;46892;45.668;11.756;2023-04-24T01:49:08;11.17;;;9.10;;
55312;SDS011;46892;45.668;11.756;2023-04-24T01:51:34;11.17;;;9.40;;
55312;SDS011;46892;45.668;11.756;2023-04-24T01:54:00;11.87;;;9.80;;
55312;SDS011;46892;45.668;11.756;2023-04-24T01:56:25;13.10;;;9.20;;
55312;SDS011;46892;45.668;11.756;2023-04-24T01:58:58;12.40;;;9.13;;
55312;SDS011;46892;45.668;11.756;2023-04-24T02:01:26;14.97;;;9.50;;
55312;SDS011;46892;45.668;11.756;2023-04-24T02:03:51;10.43;;;8.57;;
55312;SDS011;46892;45.668;11.756;2023-04-24T02:06:17;10.57;;;8.60;;
55312;SDS011;46892;45.668;11.756;2023-04-24T02:08:43;12.10;;;8.47;;
55312;SDS011;46892;45.668;11.756;2023-04-24T02:11:09;12.03;;;9.13;;
55312;SDS011;46892;45.668;11.756;2023-04-24T02:13:35;11.53;;;9.10;;
55312;SDS011;46892;45.668;11.756;2023-04-24T02:16:00;11.23;;;9.33;;
55312;SDS011;46892;45.668;11.756;2023-04-24T02:18:26;12.60;;;9.60;;
55312;SDS011;46892;45.668;11.756;2023-04-24T02:20:52;11.73;;;8.93;;
55312;SDS011;46892;45.668;11.756;2023-04-24T02:23:18;12.17;;;9.83;;
55312;SDS011;46892;45.668;11.756;2023-04-24T02:25:44;11.97;;;9.30;;
55312;SDS011;46892;45.668;11.756;2023-04-24T02:28:10;11.40;;;8.47;;
55312;SDS011;46892;45.668;11.756;2023-04-24T02:30:36;10.93;;;8.10;;
55312;SDS011;46892;45.668;11.756;2023-04-24T02:33:02;11.43;;;8.30;;
55312;SDS011;46892;45.668;11.756;2023-04-24T02:35:28;11.77;;;8.00;;
55312;SDS011;46892;45.668;11.756;2023-04-24T02:37:53;11.17;;;8.33;;
55312;SDS011;46892;45.668;11.756;2023-04-24T02:40:19;12.17;;;8.50;;
55312;SDS011;46892;45.668;11.756;2023-04-24T02:42:45;12.17;;;9.10;;
55312;SDS011;46892;45.668;11.756;2023-04-24T02:45:10;11.87;;;8.57;;
55312;SDS011;46892;45.668;11.756;2023-04-24T02:47:36;13.87;;;9.33;;
55312;SDS011;46892;45.668;11.756;2023-04-24T02:50:02;11.47;;;8.40;;
55312;SDS011;46892;45.668;11.756;2023-04-24T02:52:28;11.57;;;8.20;;
55312;SDS011;46892;45.668;11.756;2023-04-24T02:54:54;11.73;;;8.50;;
55312;SDS011;46892;45.668;11.756;2023-04-24T02:57:20;11.73;;;8.67;;
55312;SDS011;46892;45.668;11.756;2023-04-24T02:59:46;10.50;;;8.13;;
55312;SDS011;46892;45.668;11.756;2023-04-24T03:02:11;10.50;;;8.17;;
55312;SDS011;46892;45.668;11.756;2023-04-24T03:04:37;11.67;;;8.73;;
55312;SDS011;46892;45.668;11.756;2023-04-24T03:07:02;10.57;;;8.37;;
55312;SDS011;46892;45.668;11.756;2023-04-24T03:09:29;10.60;;;7.97;;
55312;SDS011;46892;45.668;11.756;2023-04-24T03:11:55;9.23;;;7.83;;
55312;SDS011;46892;45.668;11.756;2023-04-24T03:14:21;9.87;;;7.30;;
55312;SDS011;46892;45.668;11.756;2023-04-24T03:16:47;12.17;;;7.87;;
55312;SDS011;46892;45.668;11.756;2023-04-24T03:19:12;13.73;;;8.70;;
55312;SDS011;46892;45.668;11.756;2023-04-24T03:21:38;10.30;;;8.30;;
55312;SDS011;46892;45.668;11.756;2023-04-24T03:24:06;10.63;;;7.67;;
55312;SDS011;46892;45.668;11.756;2023-04-24T03:26:33;9.43;;;7.67;;
55312;SDS011;46892;45.668;11.756;2023-04-24T03:28:58;12.17;;;8.30;;
55312;SDS011;46892;45.668;11.756;2023-04-24T03:31:24;10.97;;;7.83;;
55312;SDS011;46892;45.668;11.756;2023-04-24T03:33:50;10.60;;;7.27;;
55312;SDS011;46892;45.668;11.756;2023-04-24T03:36:16;10.03;;;7.80;;
55312;SDS011;46892;45.668;11.756;2023-04-24T03:38:42;9.43;;;7.60;;
55312;SDS011;46892;45.668;11.756;2023-04-24T03:41:08;7.83;;;6.87;;
55312;SDS011;46892;45.668;11.756;2023-04-24T03:43:33;9.73;;;7.17;;
55312;SDS011;46892;45.668;11.756;2023-04-24T03:45:59;10.50;;;6.80;;
55312;SDS011;46892;45.668;11.756;2023-04-24T03:48:25;11.90;;;7.27;;
55312;SDS011;46892;45.668;11.756;2023-04-24T03:50:51;9.17;;;6.83;;
55312;SDS011;46892;45.668;11.756;2023-04-24T03:53:16;10.70;;;7.60;;
55312;SDS011;46892;45.668;11.756;2023-04-24T03:55:42;11.10;;;7.50;;
55312;SDS011;46892;45.668;11.756;2023-04-24T03:58:08;9.93;;;7.20;;
55312;SDS011;46892;45.668;11.756;2023-04-24T04:00:33;9.03;;;6.90;;
55312;SDS011;46892;45.668;11.756;2023-04-24T04:02:59;10.23;;;7.37;;
55312;SDS011;46892;45.668;11.756;2023-04-24T04:05:25;10.13;;;7.97;;
55312;SDS011;46892;45.668;11.756;2023-04-24T04:07:51;9.30;;;7.20;;
55312;SDS011;46892;45.668;11.756;2023-04-24T04:10:16;10.23;;;7.70;;
55312;SDS011;46892;45.668;11.756;2023-04-24T04:12:42;10.00;;;7.43;;
55312;SDS011;46892;45.668;11.756;2023-04-24T04:15:08;10.97;;;7.67;;
55312;SDS011;46892;45.668;11.756;2023-04-24T04:17:34;12.53;;;8.33;;
55312;SDS011;46892;45.668;11.756;2023-04-24T04:20:00;10.70;;;7.50;;
55312;SDS011;46892;45.668;11.756;2023-04-24T04:22:26;11.83;;;8.80;;
55312;SDS011;46892;45.668;11.756;2023-04-24T04:24:52;11.00;;;8.50;;
55312;SDS011;46892;45.668;11.756;2023-04-24T04:27:18;10.10;;;8.30;;
55312;SDS011;46892;45.668;11.756;2023-04-24T04:29:44;11.27;;;9.13;;
55312;SDS011;46892;45.668;11.756;2023-04-24T04:32:09;12.37;;;9.60;;
55312;SDS011;46892;45.668;11.756;2023-04-24T04:34:35;12.07;;;9.40;;
55312;SDS011;46892;45.668;11.756;2023-04-24T04:37:02;10.47;;;9.13;;
55312;SDS011;46892;45.668;11.756;2023-04-24T04:39:28;13.50;;;9.70;;
55312;SDS011;46892;45.668;11.756;2023-04-24T04:41:55;12.63;;;9.73;;
55312;SDS011;46892;45.668;11.756;2023-04-24T04:44:21;12.33;;;9.70;;
55312;SDS011;46892;45.668;11.756;2023-04-24T04:46:47;13.67;;;10.17;;
55312;SDS011;46892;45.668;11.756;2023-04-24T04:49:12;14.33;;;9.27;;
55312;SDS011;46892;45.668;11.756;2023-04-24T04:51:41;14.50;;;10.53;;
55312;SDS011;46892;45.668;11.756;2023-04-24T04:54:07;14.87;;;11.47;;
55312;SDS011;46892;45.668;11.756;2023-04-24T04:56:33;16.20;;;12.80;;
55312;SDS011;46892;45.668;11.756;2023-04-24T04:58:58;17.77;;;14.50;;
55312;SDS011;46892;45.668;11.756;2023-04-24T05:01:24;21.70;;;15.30;;
55312;SDS011;46892;45.668;11.756;2023-04-24T05:03:52;20.00;;;15.50;;
55312;SDS011;46892;45.668;11.756;2023-04-24T05:06:18;19.00;;;14.73;;
55312;SDS011;46892;45.668;11.756;2023-04-24T05:08:43;20.43;;;16.43;;
55312;SDS011;46892;45.668;11.756;2023-04-24T05:11:09;21.00;;;16.17;;
55312;SDS011;46892;45.668;11.756;2023-04-24T05:13:35;18.67;;;15.27;;
55312;SDS011;46892;45.668;11.756;2023-04-24T05:16:00;19.90;;;14.90;;
55312;SDS011;46892;45.668;11.756;2023-04-24T05:18:26;17.13;;;14.20;;
55312;SDS011;46892;45.668;11.756;2023-04-24T05:20:52;18.57;;;14.03;;
55312;SDS011;46892;45.668;11.756;2023-04-24T05:23:17;19.23;;;14.17;;
55312;SDS011;46892;45.668;11.756;2023-04-24T05:25:43;18.60;;;14.10;;
55312;SDS011;46892;45.668;11.756;2023-04-24T05:28:09;21.07;;;14.83;;
55312;SDS011;46892;45.668;11.756;2023-04-24T05:30:35;19.70;;;14.33;;
55312;SDS011;46892;45.668;11.756;2023-04-24T05:33:00;20.10;;;13.90;;
55312;SDS011;46892;45.668;11.756;2023-04-24T05:35:26;18.83;;;14.63;;
55312;SDS011;46892;45.668;11.756;2023-04-24T05:37:51;18.17;;;14.33;;
55312;SDS011;46892;45.668;11.756;2023-04-24T05:40:17;18.00;;;14.47;;
55312;SDS011;46892;45.668;11.756;2023-04-24T05:42:43;16.37;;;13.57;;
55312;SDS011;46892;45.668;11.756;2023-04-24T05:45:08;16.87;;;14.27;;
55312;SDS011;46892;45.668;11.756;2023-04-24T05:47:39;16.93;;;13.53;;
55312;SDS011;46892;45.668;11.756;2023-04-24T05:50:05;17.13;;;13.50;;
55312;SDS011;46892;45.668;11.756;2023-04-24T05:52:31;16.77;;;12.20;;
55312;SDS011;46892;45.668;11.756;2023-04-24T05:54:57;14.80;;;11.87;;
55312;SDS011;46892;45.668;11.756;2023-04-24T05:57:22;14.63;;;11.33;;
55312;SDS011;46892;45.668;11.756;2023-04-24T05:59:48;14.77;;;11.03;;
55312;SDS011;46892;45.668;11.756;2023-04-24T06:02:13;14.47;;;12.00;;
55312;SDS011;46892;45.668;11.756;2023-04-24T06:04:39;15.23;;;11.27;;
55312;SDS011;46892;45.668;11.756;2023-04-24T06:07:05;16.20;;;11.50;;
55312;SDS011;46892;45.668;11.756;2023-04-24T06:09:31;17.13;;;12.67;;
55312;SDS011;46892;45.668;11.756;2023-04-24T06:11:57;12.40;;;10.60;;
55312;SDS011;46892;45.668;11.756;2023-04-24T06:14:23;13.87;;;11.37;;
55312;SDS011;46892;45.668;11.756;2023-04-24T06:16:49;13.80;;;10.57;;
55312;SDS011;46892;45.668;11.756;2023-04-24T06:19:14;13.23;;;10.93;;
55312;SDS011;46892;45.668;11.756;2023-04-24T06:21:40;13.03;;;9.90;;
55312;SDS011;46892;45.668;11.756;2023-04-24T06:24:06;13.03;;;9.97;;
55312;SDS011;46892;45.668;11.756;2023-04-24T06:26:31;12.10;;;9.80;;
55312;SDS011;46892;45.668;11.756;2023-04-24T06:28:57;12.73;;;10.90;;
55312;SDS011;46892;45.668;11.756;2023-04-24T06:31:24;14.17;;;10.53;;
55312;SDS011;46892;45.668;11.756;2023-04-24T06:33:49;15.03;;;9.80;;
55312;SDS011;46892;45.668;11.756;2023-04-24T06:36:15;13.07;;;9.63;;
55312;SDS011;46892;45.668;11.756;2023-04-24T06:38:42;13.63;;;10.17;;
55312;SDS011;46892;45.668;11.756;2023-04-24T06:41:07;14.10;;;10.43;;
55312;SDS011;46892;45.668;11.756;2023-04-24T06:43:33;14.57;;;10.63;;
55312;SDS011;46892;45.668;11.756;2023-04-24T06:45:59;12.20;;;9.83;;
55312;SDS011;46892;45.668;11.756;2023-04-24T06:48:25;13.10;;;10.90;;
55312;SDS011;46892;45.668;11.756;2023-04-24T06:50:51;16.13;;;11.13;;
55312;SDS011;46892;45.668;11.756;2023-04-24T06:53:17;16.10;;;11.90;;
55312;SDS011;46892;45.668;11.756;2023-04-24T06:55:43;14.60;;;12.20;;
55312;SDS011;46892;45.668;11.756;2023-04-24T06:58:13;9.43;;;6.57;;
55312;SDS011;46892;45.668;11.756;2023-04-24T07:00:40;7.73;;;5.20;;
55312;SDS011;46892;45.668;11.756;2023-04-24T07:03:05;8.83;;;5.50;;
55312;SDS011;46892;45.668;11.756;2023-04-24T07:05:31;11.27;;;8.47;;
55312;SDS011;46892;45.668;11.756;2023-04-24T07:07:59;13.10;;;10.03;;
55312;SDS011;46892;45.668;11.756;2023-04-24T07:10:25;13.63;;;10.67;;
55312;SDS011;46892;45.668;11.756;2023-04-24T07:12:53;10.83;;;8.03;;
55312;SDS011;46892;45.668;11.756;2023-04-24T07:15:21;8.80;;;5.53;;
55312;SDS011;46892;45.668;11.756;2023-04-24T07:17:47;13.23;;;11.80;;
55312;SDS011;46892;45.668;11.756;2023-04-24T07:20:12;9.37;;;8.50;;
55312;SDS011;46892;45.668;11.756;2023-04-24T07:22:39;7.63;;;6.57;;
55312;SDS011;46892;45.668;11.756;2023-04-24T07:25:05;8.63;;;5.57;;
55312;SDS011;46892;45.668;11.756;2023-04-24T07:27:32;8.10;;;5.17;;
55312;SDS011;46892;45.668;11.756;2023-04-24T07:29:58;5.90;;;4.30;;
55312;SDS011;46892;45.668;11.756;2023-04-24T07:32:23;5.27;;;3.23;;
55312;SDS011;46892;45.668;11.756;2023-04-24T07:34:49;4.10;;;2.80;;
55312;SDS011;46892;45.668;11.756;2023-04-24T07:37:15;5.00;;;2.40;;
55312;SDS011;46892;45.668;11.756;2023-04-24T07:39:40;2.07;;;1.50;;
55312;SDS011;46892;45.668;11.756;2023-04-24T07:42:06;3.10;;;1.77;;
55312;SDS011;46892;45.668;11.756;2023-04-24T07:44:32;1.80;;;1.20;;
55312;SDS011;46892;45.668;11.756;2023-04-24T07:46:57;1.50;;;0.83;;
55312;SDS011;46892;45.668;11.756;2023-04-24T07:49:23;2.00;;;0.60;;
55312;SDS011;46892;45.668;11.756;2023-04-24T07:51:49;1.37;;;1.00;;
55312;SDS011;46892;45.668;11.756;2023-04-24T07:54:15;2.33;;;1.23;;
55312;SDS011;46892;45.668;11.756;2023-04-24T07:56:41;2.07;;;1.20;;
55312;SDS011;46892;45.668;11.756;2023-04-24T07:59:08;1.60;;;1.47;;
55312;SDS011;46892;45.668;11.756;2023-04-24T08:01:35;4.23;;;2.30;;
55312;SDS011;46892;45.668;11.756;2023-04-24T08:04:01;5.17;;;3.43;;
55312;SDS011;46892;45.668;11.756;2023-04-24T08:06:27;4.23;;;2.90;;
55312;SDS011;46892;45.668;11.756;2023-04-24T08:08:55;9.43;;;5.10;;
55312;SDS011;46892;45.668;11.756;2023-04-24T08:11:21;5.60;;;4.20;;
55312;SDS011;46892;45.668;11.756;2023-04-24T08:13:47;6.30;;;4.23;;
55312;SDS011;46892;45.668;11.756;2023-04-24T08:16:12;5.40;;;3.60;;
55312;SDS011;46892;45.668;11.756;2023-04-24T08:18:38;6.00;;;2.80;;
55312;SDS011;46892;45.668;11.756;2023-04-24T08:21:04;2.33;;;1.70;;
55312;SDS011;46892;45.668;11.756;2023-04-24T08:23:30;2.00;;;1.63;;
55312;SDS011;46892;45.668;11.756;2023-04-24T08:25:55;2.00;;;1.40;;
55312;SDS011;46892;45.668;11.756;2023-04-24T08:28:22;2.33;;;1.33;;
55312;SDS011;46892;45.668;11.756;2023-04-24T08:30:48;2.93;;;1.37;;
55312;SDS011;46892;45.668;11.756;2023-04-24T08:33:19;2.23;;;1.30;;
55312;SDS011;46892;45.668;11.756;2023-04-24T08:35:48;2.13;;;1.63;;
55312;SDS011;46892;45.668;11.756;2023-04-24T08:38:15;0.97;;;0.73;;
55312;SDS011;46892;45.668;11.756;2023-04-24T08:40:41;1.50;;;1.03;;
55312;SDS011;46892;45.668;11.756;2023-04-24T08:43:07;1.70;;;0.90;;
55312;SDS011;46892;45.668;11.756;2023-04-24T08:45:33;3.63;;;1.40;;
55312;SDS011;46892;45.668;11.756;2023-04-24T08:48:00;0.93;;;0.70;;
55312;SDS011;46892;45.668;11.756;2023-04-24T08:50:26;9.00;;;5.10;;
55312;SDS011;46892;45.668;11.756;2023-04-24T08:52:53;1.13;;;0.70;;
55312;SDS011;46892;45.668;11.756;2023-04-24T08:55:19;2.90;;;1.57;;
55312;SDS011;46892;45.668;11.756;2023-04-24T08:57:50;2.53;;;0.90;;
55312;SDS011;46892;45.668;11.756;2023-04-24T09:00:18;2.03;;;1.10;;
55312;SDS011;46892;45.668;11.756;2023-04-24T09:02:45;3.57;;;1.50;;
55312;SDS011;46892;45.668;11.756;2023-04-24T09:05:13;2.17;;;0.90;;
55312;SDS011;46892;45.668;11.756;2023-04-24T09:07:43;3.97;;;1.70;;
55312;SDS011;46892;45.668;11.756;2023-04-24T09:10:11;3.20;;;1.60;;
55312;SDS011;46892;45.668;11.756;2023-04-24T09:12:37;2.80;;;1.90;;
55312;SDS011;46892;45.668;11.756;2023-04-24T09:15:03;3.23;;;1.87;;
55312;SDS011;46892;45.668;11.756;2023-04-24T09:17:30;2.40;;;1.70;;
55312;SDS011;46892;45.668;11.756;2023-04-24T09:19:56;2.53;;;2.07;;
55312;SDS011;46892;45.668;11.756;2023-04-24T09:22:21;3.77;;;2.37;;
55312;SDS011;46892;45.668;11.756;2023-04-24T09:24:47;2.87;;;2.10;;
55312;SDS011;46892;45.668;11.756;2023-04-24T09:27:24;2.80;;;1.90;;
55312;SDS011;46892;45.668;11.756;2023-04-24T09:29:56;2.10;;;1.80;;
55312;SDS011;46892;45.668;11.756;2023-04-24T09:32:22;3.07;;;1.80;;
55312;SDS011;46892;45.668;11.756;2023-04-24T09:35:04;3.00;;;1.57;;
55312;SDS011;46892;45.668;11.756;2023-04-24T09:37:35;2.00;;;1.50;;
55312;SDS011;46892;45.668;11.756;2023-04-24T09:40:18;1.77;;;1.33;;
55312;SDS011;46892;45.668;11.756;2023-04-24T09:45:21;2.27;;;1.10;;
55312;SDS011;46892;45.668;11.756;2023-04-24T09:47:52;1.77;;;1.10;;
55312;SDS011;46892;45.668;11.756;2023-04-24T09:50:20;1.30;;;1.10;;
55312;SDS011;46892;45.668;11.756;2023-04-24T09:52:56;2.10;;;1.43;;
55312;SDS011;46892;45.668;11.756;2023-04-24T09:55:38;2.13;;;1.00;;
55312;SDS011;46892;45.668;11.756;2023-04-24T09:58:09;1.23;;;0.77;;
55312;SDS011;46892;45.668;11.756;2023-04-24T10:00:35;2.33;;;1.00;;
55312;SDS011;46892;45.668;11.756;2023-04-24T10:03:04;3.13;;;1.00;;
55312;SDS011;46892;45.668;11.756;2023-04-24T10:08:01;0.90;;;0.80;;
55312;SDS011;46892;45.668;11.756;2023-04-24T10:10:33;1.97;;;1.00;;
55312;SDS011;46892;45.668;11.756;2023-04-24T10:13:00;2.43;;;1.00;;
55312;SDS011;46892;45.668;11.756;2023-04-24T10:15:26;1.63;;;1.13;;
55312;SDS011;46892;45.668;11.756;2023-04-24T10:17:52;0.83;;;0.70;;
55312;SDS011;46892;45.668;11.756;2023-04-24T10:20:19;2.57;;;0.80;;
55312;SDS011;46892;45.668;11.756;2023-04-24T10:25:16;1.37;;;0.83;;
55312;SDS011;46892;45.668;11.756;2023-04-24T10:27:46;0.70;;;0.70;;
55312;SDS011;46892;45.668;11.756;2023-04-24T10:30:13;1.60;;;0.70;;
55312;SDS011;46892;45.668;11.756;2023-04-24T10:32:39;0.97;;;0.70;;
55312;SDS011;46892;45.668;11.756;2023-04-24T10:35:08;1.80;;;0.80;;
55312;SDS011;46892;45.668;11.756;2023-04-24T10:37:40;1.00;;;0.80;;
55312;SDS011;46892;45.668;11.756;2023-04-24T10:40:16;1.10;;;0.90;;
55312;SDS011;46892;45.668;11.756;2023-04-24T10:42:57;1.13;;;0.80;;
55312;SDS011;46892;45.668;11.756;2023-04-24T10:45:23;0.80;;;0.60;;
55312;SDS011;46892;45.668;11.756;2023-04-24T10:50:26;1.10;;;0.80;;
55312;SDS011;46892;45.668;11.756;2023-04-24T10:52:55;0.83;;;0.60;;
55312;SDS011;46892;45.668;11.756;2023-04-24T10:55:56;1.27;;;0.80;;
55312;SDS011;46892;45.668;11.756;2023-04-24T10:58:22;1.00;;;0.73;;
55312;SDS011;46892;45.668;11.756;2023-04-24T11:00:58;0.87;;;0.70;;
55312;SDS011;46892;45.668;11.756;2023-04-24T11:03:31;2.87;;;0.77;;
55312;SDS011;46892;45.668;11.756;2023-04-24T11:11:00;2.10;;;0.90;;
55312;SDS011;46892;45.668;11.756;2023-04-24T11:19:02;1.47;;;1.20;;
55312;SDS011;46892;45.668;11.756;2023-04-24T11:21:32;1.50;;;0.98;;
55312;SDS011;46892;45.668;11.756;2023-04-24T11:26:51;1.30;;;1.00;;
55312;SDS011;46892;45.668;11.756;2023-04-24T11:29:22;1.13;;;0.80;;
55312;SDS011;46892;45.668;11.756;2023-04-24T11:31:48;0.90;;;0.80;;
55312;SDS011;46892;45.668;11.756;2023-04-24T11:34:16;1.13;;;0.47;;
55312;SDS011;46892;45.668;11.756;2023-04-24T11:36:43;0.53;;;0.50;;
55312;SDS011;46892;45.668;11.756;2023-04-24T11:39:13;1.23;;;0.70;;
55312;SDS011;46892;45.668;11.756;2023-04-24T11:41:39;0.80;;;0.60;;
55312;SDS011;46892;45.668;11.756;2023-04-24T11:44:08;1.13;;;0.60;;
55312;SDS011;46892;45.668;11.756;2023-04-24T11:46:36;1.20;;;0.50;;
55312;SDS011;46892;45.668;11.756;2023-04-24T11:49:02;1.03;;;0.70;;
55312;SDS011;46892;45.668;11.756;2023-04-24T11:51:28;1.03;;;0.60;;
55312;SDS011;46892;45.668;11.756;2023-04-24T11:53:55;1.93;;;1.50;;
55312;SDS011;46892;45.668;11.756;2023-04-24T11:56:21;1.13;;;0.80;;
55312;SDS011;46892;45.668;11.756;2023-04-24T11:58:48;0.70;;;0.57;;
55312;SDS011;46892;45.668;11.756;2023-04-24T12:01:16;1.20;;;0.70;;
55312;SDS011;46892;45.668;11.756;2023-04-24T12:03:46;1.63;;;0.83;;
55312;SDS011;46892;45.668;11.756;2023-04-24T12:06:13;0.70;;;0.70;;
55312;SDS011;46892;45.668;11.756;2023-04-24T12:08:38;2.10;;;0.77;;
55312;SDS011;46892;45.668;11.756;2023-04-24T12:11:05;1.63;;;0.80;;
55312;SDS011;46892;45.668;11.756;2023-04-24T12:13:34;1.00;;;0.88;;
55312;SDS011;46892;45.668;11.756;2023-04-24T12:16:01;1.00;;;0.80;;
55312;SDS011;46892;45.668;11.756;2023-04-24T12:18:29;2.27;;;0.70;;
55312;SDS011;46892;45.668;11.756;2023-04-24T12:20:55;1.73;;;1.03;;
55312;SDS011;46892;45.668;11.756;2023-04-24T12:23:42;1.60;;;0.90;;
55312;SDS011;46892;45.668;11.756;2023-04-24T12:26:09;1.43;;;0.90;;
55312;SDS011;46892;45.668;11.756;2023-04-24T12:28:35;1.40;;;0.80;;
55312;SDS011;46892;45.668;11.756;2023-04-24T12:31:02;1.40;;;0.90;;
55312;SDS011;46892;45.668;11.756;2023-04-24T12:33:31;2.37;;;1.20;;
55312;SDS011;46892;45.668;11.756;2023-04-24T12:35:59;1.10;;;0.93;;
55312;SDS011;46892;45.668;11.756;2023-04-24T12:38:25;1.50;;;1.00;;
55312;SDS011;46892;45.668;11.756;2023-04-24T12:41:05;2.93;;;1.00;;
55312;SDS011;46892;45.668;11.756;2023-04-24T12:43:35;1.07;;;0.97;;
55312;SDS011;46892;45.668;11.756;2023-04-24T12:46:01;1.97;;;1.10;;
55312;SDS011;46892;45.668;11.756;2023-04-24T12:48:28;1.10;;;0.90;;
55312;SDS011;46892;45.668;11.756;2023-04-24T12:50:54;2.97;;;1.23;;
55312;SDS011;46892;45.668;11.756;2023-04-24T12:53:21;2.43;;;1.00;;
55312;SDS011;46892;45.668;11.756;2023-04-24T12:55:47;1.47;;;0.90;;
55312;SDS011;46892;45.668;11.756;2023-04-24T12:58:18;2.47;;;1.05;;
55312;SDS011;46892;45.668;11.756;2023-04-24T13:00:45;1.23;;;1.00;;
55312;SDS011;46892;45.668;11.756;2023-04-24T13:03:11;1.03;;;0.93;;
55312;SDS011;46892;45.668;11.756;2023-04-24T13:05:37;1.00;;;0.90;;
55312;SDS011;46892;45.668;11.756;2023-04-24T13:08:03;1.00;;;0.80;;
55312;SDS011;46892;45.668;11.756;2023-04-24T13:10:29;2.07;;;1.23;;
55312;SDS011;46892;45.668;11.756;2023-04-24T13:12:55;1.83;;;1.23;;
55312;SDS011;46892;45.668;11.756;2023-04-24T13:15:21;1.77;;;1.23;;
55312;SDS011;46892;45.668;11.756;2023-04-24T13:17:47;1.37;;;0.93;;
55312;SDS011;46892;45.668;11.756;2023-04-24T13:20:12;1.73;;;1.53;;
55312;SDS011;46892;45.668;11.756;2023-04-24T13:22:38;1.70;;;1.33;;
55312;SDS011;46892;45.668;11.756;2023-04-24T13:25:04;3.67;;;1.30;;
55312;SDS011;46892;45.668;11.756;2023-04-24T13:27:31;2.27;;;1.63;;
55312;SDS011;46892;45.668;11.756;2023-04-24T13:29:56;1.97;;;1.70;;
55312;SDS011;46892;45.668;11.756;2023-04-24T13:32:23;3.07;;;1.63;;
55312;SDS011;46892;45.668;11.756;2023-04-24T13:34:49;2.67;;;1.60;;
55312;SDS011;46892;45.668;11.756;2023-04-24T13:37:14;2.47;;;1.60;;
55312;SDS011;46892;45.668;11.756;2023-04-24T13:39:40;1.57;;;1.37;;
55312;SDS011;46892;45.668;11.756;2023-04-24T13:42:09;2.13;;;1.70;;
55312;SDS011;46892;45.668;11.756;2023-04-24T13:44:35;2.03;;;1.57;;
55312;SDS011;46892;45.668;11.756;2023-04-24T13:47:00;2.40;;;1.47;;
55312;SDS011;46892;45.668;11.756;2023-04-24T13:49:26;3.50;;;1.80;;
55312;SDS011;46892;45.668;11.756;2023-04-24T13:51:53;2.90;;;1.80;;
55312;SDS011;46892;45.668;11.756;2023-04-24T13:54:20;2.20;;;1.60;;
55312;SDS011;46892;45.668;11.756;2023-04-24T13:56:47;2.50;;;1.50;;
55312;SDS011;46892;45.668;11.756;2023-04-24T13:59:12;1.67;;;1.23;;
55312;SDS011;46892;45.668;11.756;2023-04-24T14:01:38;2.43;;;1.67;;
55312;SDS011;46892;45.668;11.756;2023-04-24T14:04:04;2.87;;;1.53;;
55312;SDS011;46892;45.668;11.756;2023-04-24T14:06:30;1.57;;;1.30;;
55312;SDS011;46892;45.668;11.756;2023-04-24T14:08:56;2.50;;;1.50;;
55312;SDS011;46892;45.668;11.756;2023-04-24T14:11:22;2.67;;;1.50;;
55312;SDS011;46892;45.668;11.756;2023-04-24T14:13:48;1.70;;;1.50;;
55312;SDS011;46892;45.668;11.756;2023-04-24T14:16:14;2.53;;;1.20;;
55312;SDS011;46892;45.668;11.756;2023-04-24T14:18:39;3.57;;;1.20;;
55312;SDS011;46892;45.668;11.756;2023-04-24T14:21:05;1.10;;;0.93;;
55312;SDS011;46892;45.668;11.756;2023-04-24T14:23:31;2.43;;;1.40;;
55312;SDS011;46892;45.668;11.756;2023-04-24T14:25:57;2.03;;;1.23;;
55312;SDS011;46892;45.668;11.756;2023-04-24T14:28:24;1.67;;;1.27;;
55312;SDS011;46892;45.668;11.756;2023-04-24T14:30:51;2.50;;;1.57;;
55312;SDS011;46892;45.668;11.756;2023-04-24T14:33:17;3.00;;;1.47;;
55312;SDS011;46892;45.668;11.756;2023-04-24T14:35:43;4.00;;;1.40;;
55312;SDS011;46892;45.668;11.756;2023-04-24T14:38:08;2.13;;;1.43;;
55312;SDS011;46892;45.668;11.756;2023-04-24T14:40:34;1.70;;;1.20;;
55312;SDS011;46892;45.668;11.756;2023-04-24T14:43:00;2.00;;;1.47;;
55312;SDS011;46892;45.668;11.756;2023-04-24T14:45:26;1.77;;;1.37;;
55312;SDS011;46892;45.668;11.756;2023-04-24T14:47:52;3.27;;;1.43;;